Time;durP1;ratioP1;P1;durP2;ratioP2;P2;SDS_P1;SDS_P2;PMS_P1;PMS_P2;Temp;Humidity;BMP_temperature;BMP_pressure;BME280_temperature;BME280_humidity;BME280_pressure;Samples;Min_cycle;Max_cycle;Signal;HPM_P1;HPM_P2
2023/03/13 00:01:27;;;;;;;8.67;2.67;;;10.10;99.90;;;;;;7391029;19;20479;-76
2023/03/13 00:03:54;;;;;;;10.30;3.80;;;10.10;99.90;;;;;;7391020;19;20150;-73
2023/03/13 00:06:23;;;;;;;8.57;3.20;;;10.10;99.90;;;;;;7393187;19;20142;-74
2023/03/13 00:08:48;;;;;;;11.40;3.90;;;10.00;99.90;;;;;;7391627;19;20138;-75
2023/03/13 00:11:15;;;;;;;7.70;3.07;;;10.00;99.90;;;;;;7392620;19;20158;-75
2023/03/13 00:13:42;;;;;;;6.30;2.60;;;10.10;99.90;;;;;;7391569;19;20138;-75
2023/03/13 00:16:11;;;;;;;8.20;2.83;;;10.10;99.90;;;;;;7392748;19;20138;-74
2023/03/13 00:18:37;;;;;;;7.17;2.73;;;10.10;99.90;;;;;;7392017;19;20142;-74
2023/03/13 00:21:08;;;;;;;10.20;3.30;;;10.10;99.90;;;;;;7392690;19;20147;-75
2023/03/13 00:23:36;;;;;;;5.37;2.47;;;10.10;99.90;;;;;;7390324;19;20154;-73
2023/03/13 00:26:08;;;;;;;10.73;3.00;;;10.10;99.90;;;;;;7391463;19;20138;-75
2023/03/13 00:28:36;;;;;;;6.07;3.13;;;10.10;99.90;;;;;;7391599;19;20158;-75
2023/03/13 00:31:07;;;;;;;8.67;2.70;;;10.00;99.90;;;;;;7391242;19;20741;-74
2023/03/13 00:33:37;;;;;;;7.50;2.83;;;10.00;99.90;;;;;;7393300;19;20139;-73
2023/03/13 00:36:06;;;;;;;7.77;2.73;;;10.00;99.90;;;;;;7390303;19;20150;-75
2023/03/13 00:38:32;;;;;;;5.00;2.37;;;10.00;99.90;;;;;;7389977;19;20147;-74
2023/03/13 00:41:13;;;;;;;7.83;2.77;;;10.10;99.90;;;;;;7391501;19;20143;-74
2023/03/13 00:43:41;;;;;;;6.80;2.57;;;10.10;99.90;;;;;;7391862;19;20512;-74
2023/03/13 00:46:08;;;;;;;7.57;2.80;;;10.00;99.90;;;;;;7390542;19;20484;-74
2023/03/13 00:48:34;;;;;;;9.60;2.63;;;9.90;99.90;;;;;;7389833;19;20142;-74
2023/03/13 00:51:01;;;;;;;8.20;2.50;;;10.00;99.90;;;;;;7391648;19;20631;-74
2023/03/13 00:53:28;;;;;;;6.17;2.80;;;10.10;99.90;;;;;;7390978;19;20138;-74
2023/03/13 00:56:05;;;;;;;7.83;3.20;;;10.10;99.90;;;;;;7384438;19;20174;-74
2023/03/13 00:58:34;;;;;;;7.93;2.50;;;10.10;99.90;;;;;;7390800;19;20127;-75
2023/03/13 01:01:19;;;;;;;7.87;2.63;;;10.10;99.90;;;;;;7388091;19;20165;-75
2023/03/13 01:04:00;;;;;;;8.90;2.70;;;10.10;99.90;;;;;;7387775;19;20939;-75
2023/03/13 01:06:29;;;;;;;7.40;2.73;;;10.10;99.90;;;;;;7390446;19;20177;-73
2023/03/13 01:08:55;;;;;;;10.50;3.13;;;10.00;99.90;;;;;;7387181;19;20165;-74
2023/03/13 01:11:26;;;;;;;9.97;2.67;;;10.00;99.90;;;;;;7382611;19;23316;-73
2023/03/13 01:14:00;;;;;;;8.20;2.90;;;10.00;99.90;;;;;;7388527;19;20620;-74
2023/03/13 01:16:29;;;;;;;9.00;2.73;;;10.00;99.90;;;;;;7392814;19;20146;-74
2023/03/13 01:18:59;;;;;;;7.17;2.87;;;10.10;99.90;;;;;;7390678;19;20612;-74
2023/03/13 01:21:26;;;;;;;8.27;2.73;;;10.00;99.90;;;;;;7391580;19;20131;-73
2023/03/13 01:23:53;;;;;;;8.43;2.80;;;10.00;99.90;;;;;;7384910;19;20144;-75
2023/03/13 01:26:20;;;;;;;10.57;2.80;;;10.00;99.90;;;;;;7388843;19;20167;-74
2023/03/13 01:28:46;;;;;;;6.23;2.03;;;9.90;99.90;;;;;;7386678;19;20202;-74
2023/03/13 01:31:16;;;;;;;10.57;2.73;;;10.00;99.90;;;;;;7389078;19;20146;-75
2023/03/13 01:33:42;;;;;;;8.53;2.80;;;10.00;99.90;;;;;;7387677;19;20150;-73
2023/03/13 01:36:08;;;;;;;7.77;2.27;;;10.00;99.90;;;;;;7386793;19;20138;-74
2023/03/13 01:38:35;;;;;;;8.43;2.53;;;10.00;99.90;;;;;;7389956;19;20576;-74
2023/03/13 01:41:02;;;;;;;6.50;2.67;;;10.10;99.90;;;;;;7389696;19;20479;-74
2023/03/13 01:43:30;;;;;;;7.33;2.47;;;10.00;99.90;;;;;;7387090;19;20583;-74
2023/03/13 01:46:01;;;;;;;8.57;1.87;;;10.00;99.90;;;;;;7387958;19;20210;-74
2023/03/13 01:48:39;;;;;;;6.90;2.20;;;9.80;99.90;;;;;;7387254;19;20154;-75
2023/03/13 01:51:44;;;;;;;5.37;2.20;;;10.00;99.90;;;;;;7388531;19;20205;-75
2023/03/13 01:54:24;;;;;;;7.77;2.67;;;9.90;99.90;;;;;;7388235;19;20262;-75
2023/03/13 01:56:57;;;;;;;4.80;1.87;;;10.00;99.90;;;;;;7387517;19;20147;-74
2023/03/13 01:59:27;;;;;;;8.97;2.60;;;9.70;99.90;;;;;;7390013;19;20560;-73
2023/03/13 02:01:57;;;;;;;5.77;2.10;;;9.80;99.90;;;;;;7385732;19;20157;-73
2023/03/13 02:04:29;;;;;;;13.43;2.67;;;10.00;99.90;;;;;;7386525;19;20639;-72
2023/03/13 02:06:59;;;;;;;9.13;2.30;;;10.00;99.90;;;;;;7387147;19;20130;-74
2023/03/13 02:09:28;;;;;;;5.53;2.70;;;9.90;99.90;;;;;;7392286;19;20139;-74
2023/03/13 02:12:08;;;;;;;8.23;2.23;;;10.00;99.90;;;;;;7387526;19;20134;-73
2023/03/13 02:14:37;;;;;;;8.77;1.87;;;10.00;99.90;;;;;;7388863;19;20130;-74
2023/03/13 02:17:05;;;;;;;6.57;2.17;;;10.10;99.90;;;;;;7391204;19;20126;-74
2023/03/13 02:19:38;;;;;;;7.77;2.53;;;10.20;99.90;;;;;;7390331;19;20160;-74
2023/03/13 02:22:42;;;;;;;8.53;2.40;;;10.20;99.90;;;;;;7388894;19;20138;-72
2023/03/13 02:25:23;;;;;;;5.90;2.50;;;10.20;99.90;;;;;;7387879;19;20142;-73
2023/03/13 02:28:00;;;;;;;7.43;2.43;;;10.10;99.90;;;;;;7385506;19;20130;-74
2023/03/13 02:30:27;;;;;;;5.47;2.00;;;10.10;99.90;;;;;;7388976;19;20146;-72
2023/03/13 02:32:53;;;;;;;5.87;2.40;;;10.10;99.90;;;;;;7386538;19;20631;-73
2023/03/13 02:35:20;;;;;;;6.97;1.80;;;10.10;99.90;;;;;;7382447;19;20146;-72
2023/03/13 02:37:53;;;;;;;8.97;2.23;;;10.10;99.90;;;;;;7387234;19;20139;-73
2023/03/13 02:40:33;;;;;;;6.20;1.90;;;10.00;99.90;;;;;;7387517;19;20130;-74
2023/03/13 02:43:01;;;;;;;5.10;1.87;;;9.80;99.90;;;;;;7385818;19;20149;-72
2023/03/13 02:45:27;;;;;;;6.60;1.97;;;9.90;99.90;;;;;;7389618;19;20134;-73
2023/03/13 02:47:53;;;;;;;6.83;2.10;;;9.80;99.90;;;;;;7386170;19;20134;-72
2023/03/13 02:50:20;;;;;;;5.90;1.83;;;10.00;99.90;;;;;;7386921;19;20149;-73
2023/03/13 02:52:50;;;;;;;5.57;2.17;;;10.00;99.90;;;;;;7385579;19;20143;-73
2023/03/13 02:55:48;;;;;;;9.40;3.03;;;10.10;99.90;;;;;;7386505;19;20193;-73
2023/03/13 02:58:14;;;;;;;2.80;1.77;;;10.20;99.90;;;;;;7388360;19;20508;-73
2023/03/13 03:00:39;;;;;;;4.87;1.70;;;10.30;99.90;;;;;;7387449;19;20143;-73
2023/03/13 03:03:05;;;;;;;8.77;2.17;;;10.10;99.90;;;;;;7386078;19;20138;-73
2023/03/13 03:05:31;;;;;;;3.50;1.60;;;10.10;99.90;;;;;;7385136;19;20161;-73
2023/03/13 03:07:57;;;;;;;7.47;2.23;;;10.00;99.90;;;;;;7386887;19;20139;-73
2023/03/13 03:10:24;;;;;;;7.80;2.10;;;10.00;99.90;;;;;;7385187;19;20234;-73
2023/03/13 03:12:50;;;;;;;5.30;1.70;;;10.20;99.90;;;;;;7385030;19;20469;-74
2023/03/13 03:15:15;;;;;;;5.33;1.80;;;10.30;99.90;;;;;;7386127;19;20218;-74
2023/03/13 03:17:41;;;;;;;3.43;1.60;;;10.10;99.90;;;;;;7385088;19;20515;-73
2023/03/13 03:20:10;;;;;;;3.47;1.37;;;10.20;99.90;;;;;;7393567;19;20802;-74
2023/03/13 03:22:39;;;;;;;4.30;1.87;;;10.00;99.90;;;;;;7392113;19;20150;-73
2023/03/13 03:25:06;;;;;;;3.87;1.40;;;10.10;99.90;;;;;;7392402;19;20139;-73
2023/03/13 03:27:32;;;;;;;4.70;1.00;;;10.20;99.90;;;;;;7391512;19;21915;-72
2023/03/13 03:29:57;;;;;;;4.73;1.33;;;10.10;99.90;;;;;;7394206;19;20158;-72
2023/03/13 03:32:23;;;;;;;3.37;1.10;;;10.00;99.90;;;;;;7391678;19;20161;-72
2023/03/13 03:34:49;;;;;;;3.33;1.53;;;9.90;99.90;;;;;;7393652;19;20135;-73
2023/03/13 03:37:15;;;;;;;2.80;1.20;;;10.00;99.90;;;;;;7392350;19;20235;-73
2023/03/13 03:39:41;;;;;;;1.83;1.00;;;9.90;99.90;;;;;;7392391;19;20158;-73
2023/03/13 03:42:08;;;;;;;5.63;1.47;;;9.80;99.90;;;;;;7392916;19;20143;-72
2023/03/13 03:44:34;;;;;;;4.37;1.40;;;10.00;99.90;;;;;;7393675;19;20150;-74
2023/03/13 03:46:59;;;;;;;2.17;1.00;;;9.90;99.90;;;;;;7392656;19;20230;-73
2023/03/13 03:49:25;;;;;;;3.40;1.20;;;9.90;99.90;;;;;;7391943;19;20131;-74
2023/03/13 03:51:51;;;;;;;4.20;1.23;;;9.90;99.90;;;;;;7393236;19;20146;-73
2023/03/13 03:54:17;;;;;;;2.37;1.00;;;9.90;99.90;;;;;;7390469;19;20130;-74
2023/03/13 03:56:42;;;;;;;8.33;1.57;;;10.00;99.90;;;;;;7391518;19;20162;-73
2023/03/13 03:59:08;;;;;;;5.27;1.80;;;10.10;99.90;;;;;;7392291;19;20146;-74
2023/03/13 04:01:34;;;;;;;4.70;1.50;;;10.10;99.90;;;;;;7391754;19;20137;-74
2023/03/13 04:04:00;;;;;;;3.23;1.23;;;10.20;99.90;;;;;;7390704;19;20181;-73
2023/03/13 04:06:26;;;;;;;2.63;1.33;;;10.20;99.90;;;;;;7392291;19;20154;-73
2023/03/13 04:08:51;;;;;;;3.30;1.10;;;10.10;99.90;;;;;;7391366;19;20232;-74
2023/03/13 04:11:17;;;;;;;3.20;1.07;;;10.20;99.90;;;;;;7392114;19;20139;-74
2023/03/13 04:13:43;;;;;;;3.47;1.00;;;10.20;99.90;;;;;;7394077;19;20146;-74
2023/03/13 04:16:09;;;;;;;4.53;0.83;;;10.40;99.90;;;;;;7392056;19;20162;-74
2023/03/13 04:18:35;;;;;;;2.37;0.90;;;10.50;99.90;;;;;;7389638;19;20135;-73
2023/03/13 04:21:02;;;;;;;2.83;1.00;;;10.60;99.90;;;;;;7390179;19;20186;-73
2023/03/13 04:23:28;;;;;;;2.47;1.00;;;10.60;99.90;;;;;;7392021;19;20179;-73
2023/03/13 04:25:54;;;;;;;1.55;0.70;;;10.90;99.90;;;;;;7391215;19;20151;-72
2023/03/13 04:28:20;;;;;;;1.17;0.70;;;11.10;99.90;;;;;;7384350;19;20126;-73
2023/03/13 04:30:45;;;;;;;2.27;0.80;;;11.30;99.90;;;;;;7387464;19;20146;-73
2023/03/13 04:33:11;;;;;;;0.57;0.53;;;11.40;99.90;;;;;;7391702;19;20222;-73
2023/03/13 04:35:37;;;;;;;0.73;0.57;;;11.50;99.90;;;;;;7390628;19;20159;-73
2023/03/13 04:38:02;;;;;;;1.27;0.73;;;11.60;99.90;;;;;;7393779;19;20147;-73
2023/03/13 04:40:28;;;;;;;1.43;0.67;;;11.70;99.90;;;;;;7391368;19;20222;-73
2023/03/13 04:42:54;;;;;;;1.90;0.90;;;11.70;99.90;;;;;;7389319;19;20154;-73
2023/03/13 04:45:20;;;;;;;1.37;0.60;;;11.70;99.90;;;;;;7392225;19;20165;-74
2023/03/13 04:47:46;;;;;;;3.80;0.77;;;11.80;99.90;;;;;;7390359;19;20626;-74
2023/03/13 04:50:12;;;;;;;2.07;0.70;;;11.80;99.90;;;;;;7390543;19;20154;-73
2023/03/13 04:52:37;;;;;;;1.55;0.60;;;11.90;99.90;;;;;;7389328;19;20497;-73
2023/03/13 04:55:04;;;;;;;4.13;0.97;;;11.90;99.90;;;;;;7388652;19;20169;-73
2023/03/13 04:57:29;;;;;;;1.60;0.73;;;12.00;99.90;;;;;;7390925;19;20143;-74
2023/03/13 04:59:55;;;;;;;1.00;0.57;;;11.90;99.90;;;;;;7391096;19;20266;-74
2023/03/13 05:02:21;;;;;;;0.73;0.50;;;11.90;99.90;;;;;;7389662;19;20170;-74
2023/03/13 05:04:47;;;;;;;0.47;0.43;;;11.80;99.90;;;;;;7386313;19;20170;-74
2023/03/13 05:07:13;;;;;;;0.60;0.57;;;11.90;99.90;;;;;;7388724;19;20158;-73
2023/03/13 05:09:38;;;;;;;0.82;0.60;;;11.90;99.90;;;;;;7389714;19;20170;-74
2023/03/13 05:12:04;;;;;;;1.10;0.73;;;11.90;99.90;;;;;;7389213;19;20135;-73
2023/03/13 05:14:30;;;;;;;1.73;0.67;;;12.00;99.90;;;;;;7389197;19;20172;-74
2023/03/13 05:16:56;;;;;;;1.13;0.50;;;11.90;99.90;;;;;;7392524;19;20167;-74
2023/03/13 05:19:22;;;;;;;0.73;0.50;;;11.90;99.90;;;;;;7388845;19;20159;-74
2023/03/13 05:21:48;;;;;;;1.85;0.73;;;11.90;99.90;;;;;;7388608;19;20501;-74
2023/03/13 05:24:13;;;;;;;1.33;0.70;;;11.90;99.90;;;;;;7387949;19;20156;-73
2023/03/13 05:26:40;;;;;;;1.45;0.70;;;12.00;99.90;;;;;;7390664;19;20157;-73
2023/03/13 05:29:05;;;;;;;0.70;0.60;;;12.00;99.90;;;;;;7388501;19;20894;-74
2023/03/13 05:31:31;;;;;;;1.17;0.52;;;12.00;99.90;;;;;;7389521;19;20142;-74
2023/03/13 05:33:57;;;;;;;1.70;0.53;;;12.00;99.90;;;;;;7388976;19;20158;-73
2023/03/13 05:36:23;;;;;;;0.53;0.50;;;12.00;99.90;;;;;;7388502;19;20250;-73
2023/03/13 05:38:48;;;;;;;1.63;0.60;;;12.00;99.90;;;;;;7388816;19;20135;-73
2023/03/13 05:41:14;;;;;;;2.93;0.73;;;12.00;99.90;;;;;;7390478;19;20138;-74
2023/03/13 05:43:40;;;;;;;1.03;0.60;;;12.00;99.90;;;;;;7385656;19;20206;-74
2023/03/13 05:46:06;;;;;;;1.93;0.70;;;12.00;99.90;;;;;;7389487;19;20149;-73
2023/03/13 05:48:32;;;;;;;1.92;0.63;;;12.00;99.90;;;;;;7386820;19;20172;-74
2023/03/13 05:50:57;;;;;;;0.40;0.40;;;12.00;99.90;;;;;;7388593;19;21020;-73
2023/03/13 05:53:23;;;;;;;0.63;0.50;;;12.10;99.90;;;;;;7389631;19;20147;-73
2023/03/13 05:55:50;;;;;;;0.50;0.40;;;12.10;99.90;;;;;;7381078;19;20142;-73
2023/03/13 05:58:16;;;;;;;3.28;0.80;;;12.10;99.90;;;;;;7387441;19;20146;-74
2023/03/13 06:00:42;;;;;;;2.22;0.60;;;12.10;99.90;;;;;;7388622;19;20206;-74
2023/03/13 06:03:09;;;;;;;1.25;0.50;;;12.20;99.90;;;;;;7389002;19;20135;-74
2023/03/13 06:05:36;;;;;;;1.90;1.25;;;12.30;99.90;;;;;;7387061;19;20149;-73
2023/03/13 06:08:01;;;;;;;0.82;0.60;;;12.30;99.90;;;;;;7388674;19;20154;-74
2023/03/13 06:10:28;;;;;;;1.73;0.50;;;12.30;99.90;;;;;;7388632;19;20156;-74
2023/03/13 06:12:55;;;;;;;1.05;0.60;;;12.30;99.90;;;;;;7386849;19;20591;-74
2023/03/13 06:15:21;;;;;;;0.70;0.55;;;12.30;99.90;;;;;;7389500;19;20757;-73
2023/03/13 06:17:48;;;;;;;0.73;0.50;;;12.30;99.90;;;;;;7388394;19;20810;-74
2023/03/13 06:20:14;;;;;;;1.10;0.68;;;12.40;99.90;;;;;;7389198;19;20142;-73
2023/03/13 06:22:40;;;;;;;1.03;0.53;;;12.50;99.90;;;;;;7386262;19;20150;-74
2023/03/13 06:25:07;;;;;;;1.23;0.50;;;12.50;99.90;;;;;;7389574;19;20446;-74
2023/03/13 06:27:33;;;;;;;0.98;0.60;;;12.50;99.90;;;;;;7385567;19;20131;-74
2023/03/13 06:29:59;;;;;;;1.98;1.02;;;12.50;99.90;;;;;;7389723;19;20611;-74
2023/03/13 06:32:24;;;;;;;0.43;0.40;;;12.50;99.90;;;;;;7382443;19;20160;-73
2023/03/13 06:34:51;;;;;;;1.80;0.57;;;12.60;99.90;;;;;;7385453;19;20131;-75
2023/03/13 06:37:17;;;;;;;0.52;0.50;;;12.50;99.90;;;;;;7383955;19;20154;-73
2023/03/13 06:39:42;;;;;;;1.52;0.60;;;12.60;99.90;;;;;;7384542;19;20141;-73
2023/03/13 06:42:08;;;;;;;1.58;0.40;;;12.60;99.90;;;;;;7386669;19;20579;-74
2023/03/13 06:44:34;;;;;;;2.80;0.60;;;12.60;99.90;;;;;;7386120;19;20201;-73
2023/03/13 06:47:00;;;;;;;1.02;0.60;;;12.70;99.90;;;;;;7384007;19;20150;-74
2023/03/13 06:49:26;;;;;;;2.38;0.50;;;12.80;99.90;;;;;;7381495;19;20705;-73
2023/03/13 06:51:52;;;;;;;0.80;0.50;;;12.80;99.90;;;;;;7382112;19;20179;-73
2023/03/13 06:54:17;;;;;;;0.82;0.73;;;12.80;99.90;;;;;;7389957;19;20134;-74
2023/03/13 06:56:43;;;;;;;1.40;0.57;;;12.80;99.90;;;;;;7392359;19;20591;-74
2023/03/13 06:59:09;;;;;;;0.77;0.47;;;12.80;99.90;;;;;;7389927;19;20141;-73
2023/03/13 07:01:35;;;;;;;0.32;0.32;;;12.90;99.90;;;;;;7384842;19;20127;-74
2023/03/13 07:04:00;;;;;;;0.90;0.60;;;12.80;99.90;;;;;;7390501;19;20194;-73
2023/03/13 07:06:26;;;;;;;1.75;0.52;;;13.00;99.90;;;;;;7393778;19;20154;-75
2023/03/13 07:08:52;;;;;;;0.30;0.30;;;12.90;99.90;;;;;;7389826;19;20130;-74
2023/03/13 07:11:39;;;;;;;0.63;0.50;;;12.80;99.90;;;;;;7383897;19;20146;-75
2023/03/13 07:14:07;;;;;;;2.20;1.58;;;12.90;99.90;;;;;;7391503;19;20919;-74
2023/03/13 07:16:34;;;;;;;1.27;0.80;;;13.00;99.90;;;;;;7393511;19;20139;-74
2023/03/13 07:18:59;;;;;;;1.08;0.60;;;13.00;99.90;;;;;;7393911;19;20138;-74
2023/03/13 07:21:25;;;;;;;0.85;0.60;;;12.90;99.90;;;;;;7389873;19;20146;-74
2023/03/13 07:23:53;;;;;;;1.55;0.80;;;13.00;99.90;;;;;;7394699;19;20374;-74
2023/03/13 07:26:19;;;;;;;0.55;0.40;;;12.90;99.90;;;;;;7392793;19;20158;-73
2023/03/13 07:28:45;;;;;;;1.47;0.83;;;13.00;99.90;;;;;;7387574;19;20411;-74
2023/03/13 07:31:14;;;;;;;1.55;0.70;;;12.90;99.90;;;;;;7389613;19;20509;-74
2023/03/13 07:33:44;;;;;;;1.38;0.68;;;12.90;99.90;;;;;;7389871;19;20514;-73
2023/03/13 07:36:12;;;;;;;0.60;0.57;;;13.10;99.90;;;;;;7392600;19;20155;-74
2023/03/13 07:38:39;;;;;;;1.95;0.65;;;13.10;99.90;;;;;;7386693;19;20138;-74
2023/03/13 07:41:05;;;;;;;2.35;1.05;;;13.00;99.90;;;;;;7389323;19;20131;-74
2023/03/13 07:43:31;;;;;;;0.50;0.43;;;13.00;99.90;;;;;;7390579;19;20154;-74
2023/03/13 07:46:01;;;;;;;1.55;1.10;;;13.00;99.90;;;;;;7392399;19;20177;-75
2023/03/13 07:48:30;;;;;;;2.72;1.20;;;13.00;99.90;;;;;;7390722;19;20142;-75
2023/03/13 07:50:57;;;;;;;0.60;0.60;;;12.90;99.90;;;;;;7395553;19;20142;-74
2023/03/13 07:53:23;;;;;;;1.52;0.60;;;12.90;99.90;;;;;;7393097;19;20142;-74
2023/03/13 07:55:56;;;;;;;1.73;0.65;;;13.00;99.90;;;;;;7392618;19;20157;-74
2023/03/13 07:58:22;;;;;;;0.85;0.60;;;13.00;99.90;;;;;;7395900;19;20158;-74
2023/03/13 08:00:48;;;;;;;0.57;0.57;;;13.00;99.90;;;;;;7391669;19;20139;-74
2023/03/13 08:03:14;;;;;;;2.13;0.40;;;13.00;99.90;;;;;;7393816;19;20134;-74
2023/03/13 08:05:40;;;;;;;2.42;0.70;;;13.00;99.90;;;;;;7391694;19;20543;-74
2023/03/13 08:08:06;;;;;;;0.80;0.50;;;13.20;99.90;;;;;;7392914;19;20146;-75
2023/03/13 08:10:34;;;;;;;1.60;0.60;;;13.20;99.90;;;;;;7390143;19;20906;-75
2023/03/13 08:13:00;;;;;;;2.88;0.75;;;13.30;99.90;;;;;;7393717;19;20472;-74
2023/03/13 08:15:27;;;;;;;0.77;0.40;;;13.40;99.90;;;;;;7391207;19;20143;-73
2023/03/13 08:17:54;;;;;;;1.92;0.47;;;13.50;99.90;;;;;;7391575;19;20143;-73
2023/03/13 08:20:20;;;;;;;0.77;0.60;;;13.60;99.90;;;;;;7391334;19;20146;-73
2023/03/13 08:22:46;;;;;;;0.95;0.60;;;13.60;99.90;;;;;;7391971;19;20164;-74
2023/03/13 08:25:13;;;;;;;0.80;0.50;;;13.70;99.90;;;;;;7392997;19;20139;-75
2023/03/13 08:27:39;;;;;;;1.05;0.85;;;13.90;99.90;;;;;;7391132;19;20603;-74
2023/03/13 08:30:05;;;;;;;0.75;0.52;;;14.10;99.90;;;;;;7392234;19;20156;-75
2023/03/13 08:32:37;;;;;;;0.98;0.40;;;14.10;99.90;;;;;;7392820;19;20595;-74
2023/03/13 08:35:04;;;;;;;1.52;0.70;;;14.20;99.90;;;;;;7393686;19;20595;-74
2023/03/13 08:37:29;;;;;;;1.38;0.65;;;14.20;99.90;;;;;;7390234;19;20150;-74
2023/03/13 08:39:55;;;;;;;0.70;0.70;;;14.40;99.90;;;;;;7391466;19;20187;-74
2023/03/13 08:42:22;;;;;;;1.83;0.65;;;14.40;99.90;;;;;;7389692;19;20174;-74
2023/03/13 08:44:48;;;;;;;3.05;1.58;;;14.30;99.90;;;;;;7390989;19;20138;-74
2023/03/13 08:47:14;;;;;;;3.20;0.98;;;14.30;99.90;;;;;;7389749;19;20485;-73
2023/03/13 08:49:39;;;;;;;3.30;1.20;;;14.50;99.90;;;;;;7390563;19;20131;-74
2023/03/13 08:52:08;;;;;;;0.70;0.70;;;14.30;99.90;;;;;;7390430;19;20143;-74
2023/03/13 08:54:34;;;;;;;0.73;0.55;;;14.30;99.90;;;;;;7388911;19;20150;-73
2023/03/13 08:57:00;;;;;;;1.52;0.57;;;14.30;99.90;;;;;;7389744;19;20162;-73
2023/03/13 08:59:26;;;;;;;1.58;0.80;;;14.30;99.90;;;;;;7392431;19;20165;-72
2023/03/13 09:01:52;;;;;;;2.53;0.60;;;14.30;99.90;;;;;;7389463;19;20461;-74
2023/03/13 09:04:20;;;;;;;2.70;1.00;;;14.40;99.90;;;;;;7387634;19;20217;-72
2023/03/13 09:06:46;;;;;;;1.20;0.90;;;14.40;99.90;;;;;;7387636;19;20974;-73
2023/03/13 09:09:13;;;;;;;1.00;0.57;;;14.50;99.90;;;;;;7390346;19;20131;-73
2023/03/13 09:11:39;;;;;;;1.15;0.65;;;14.60;99.90;;;;;;7399157;19;20170;-72
2023/03/13 09:14:06;;;;;;;2.38;0.80;;;14.60;99.90;;;;;;7396265;19;20146;-72
2023/03/13 09:16:34;;;;;;;1.10;0.88;;;14.60;99.90;;;;;;7387784;19;20143;-73
2023/03/13 09:19:03;;;;;;;1.88;1.50;;;14.70;99.90;;;;;;7390987;19;20138;-73
2023/03/13 09:21:31;;;;;;;1.30;0.77;;;14.70;99.90;;;;;;7391604;19;20154;-72
2023/03/13 09:23:57;;;;;;;1.08;0.90;;;14.80;99.90;;;;;;7391854;19;20138;-72
2023/03/13 09:26:25;;;;;;;1.92;1.00;;;14.80;99.90;;;;;;7389964;19;20161;-73
2023/03/13 09:28:52;;;;;;;1.13;0.73;;;14.80;99.90;;;;;;7388714;19;20154;-73
2023/03/13 09:31:21;;;;;;;0.50;0.50;;;14.90;99.90;;;;;;7389030;19;20131;-73
2023/03/13 09:33:48;;;;;;;2.75;0.90;;;15.00;99.90;;;;;;7388296;19;20162;-72
2023/03/13 09:36:15;;;;;;;3.65;0.95;;;15.10;99.90;;;;;;7389675;19;20186;-72
2023/03/13 09:38:41;;;;;;;1.58;0.73;;;15.10;99.90;;;;;;7387716;19;20237;-73
2023/03/13 09:41:26;;;;;;;3.15;1.98;;;15.10;99.90;;;;;;7388707;19;20165;-73
2023/03/13 09:44:11;;;;;;;1.77;1.10;;;15.00;99.90;;;;;;7391482;19;20142;-73
2023/03/13 09:47:00;;;;;;;1.13;0.60;;;15.20;99.90;;;;;;7390502;19;20141;-72
2023/03/13 09:49:41;;;;;;;0.90;0.73;;;15.30;99.90;;;;;;7384734;19;20143;-73
2023/03/13 09:52:22;;;;;;;1.25;0.73;;;15.30;99.90;;;;;;7393530;19;20241;-72
2023/03/13 09:55:00;;;;;;;2.25;0.70;;;15.50;99.90;;;;;;7388199;19;20598;-72
2023/03/13 09:57:47;;;;;;;1.40;0.82;;;15.60;99.90;;;;;;7392664;19;20498;-74
2023/03/13 10:00:16;;;;;;;1.30;0.73;;;15.80;99.90;;;;;;7388589;19;20127;-72
2023/03/13 10:02:46;;;;;;;0.80;0.80;;;15.90;99.90;;;;;;7386031;19;20142;-72
2023/03/13 10:05:25;;;;;;;2.67;0.70;;;16.10;99.90;;;;;;7386588;19;20619;-72
2023/03/13 10:08:07;;;;;;;1.38;0.93;;;16.20;99.90;;;;;;7387027;19;20158;-73
2023/03/13 10:10:55;;;;;;;2.25;1.25;;;16.30;99.90;;;;;;7387246;19;20146;-72
2023/03/13 10:13:31;;;;;;;2.15;0.70;;;16.50;99.90;;;;;;7387896;19;20222;-73
2023/03/13 10:16:21;;;;;;;1.20;0.60;;;16.60;99.90;;;;;;7389401;19;20137;-72
2023/03/13 10:18:52;;;;;;;1.00;0.70;;;16.90;99.90;;;;;;7388493;19;20155;-73
2023/03/13 10:21:20;;;;;;;1.52;0.95;;;17.10;99.90;;;;;;7388514;19;20149;-72
2023/03/13 10:23:52;;;;;;;3.00;0.98;;;17.30;99.90;;;;;;7390755;19;20150;-73
2023/03/13 10:26:25;;;;;;;1.98;0.77;;;17.30;99.90;;;;;;7390288;19;20143;-74
2023/03/13 10:28:59;;;;;;;1.23;0.88;;;17.50;99.90;;;;;;7385842;19;20141;-75
2023/03/13 10:31:33;;;;;;;2.97;1.00;;;17.50;99.90;;;;;;7387803;19;20153;-74
2023/03/13 10:34:11;;;;;;;1.10;0.77;;;17.50;99.90;;;;;;7386523;19;20150;-73
2023/03/13 10:36:45;;;;;;;1.70;0.68;;;17.50;99.90;;;;;;7387601;19;20130;-74
2023/03/13 10:39:23;;;;;;;1.67;1.13;;;17.60;99.90;;;;;;7386813;19;20142;-75
2023/03/13 10:41:55;;;;;;;3.33;1.50;;;17.60;99.90;;;;;;7386619;19;20157;-75
2023/03/13 10:44:28;;;;;;;2.08;0.90;;;17.60;99.90;;;;;;7387118;19;20194;-74
2023/03/13 10:47:01;;;;;;;1.00;0.80;;;17.70;99.90;;;;;;7388410;19;20174;-71
2023/03/13 10:49:28;;;;;;;1.25;0.73;;;17.80;99.90;;;;;;7387768;19;20609;-74
2023/03/13 10:51:57;;;;;;;1.27;1.00;;;17.60;99.90;;;;;;7390760;19;20170;-74
2023/03/13 10:54:34;;;;;;;1.55;0.85;;;17.50;99.90;;;;;;7386153;19;20151;-77
2023/03/13 10:57:17;;;;;;;3.38;1.17;;;17.40;99.90;;;;;;7395425;19;20134;-75
2023/03/13 10:59:46;;;;;;;1.98;1.20;;;17.50;99.90;;;;;;7388117;19;20139;-75
2023/03/13 11:02:37;;;;;;;1.45;1.00;;;17.60;99.90;;;;;;7386857;19;20134;-76
2023/03/13 11:05:29;;;;;;;1.83;1.00;;;17.60;99.90;;;;;;7385736;19;20151;-74
2023/03/13 11:07:56;;;;;;;1.15;1.00;;;17.70;99.90;;;;;;7394078;19;20762;-75
2023/03/13 11:10:31;;;;;;;3.53;2.00;;;17.80;99.90;;;;;;7387382;19;20142;-71
2023/03/13 11:12:58;;;;;;;2.28;1.73;;;17.90;99.90;;;;;;7388782;19;20502;-72
2023/03/13 11:15:27;;;;;;;2.35;1.40;;;17.80;99.90;;;;;;7389425;19;20142;-71
2023/03/13 11:18:13;;;;;;;1.90;1.08;;;17.70;99.90;;;;;;7386276;19;20571;-72
2023/03/13 11:20:44;;;;;;;2.05;1.30;;;17.50;99.90;;;;;;7389886;19;20154;-73
2023/03/13 11:23:24;;;;;;;3.00;1.25;;;17.50;99.90;;;;;;7387725;19;20150;-73
2023/03/13 11:26:17;;;;;;;2.83;0.90;;;17.60;99.90;;;;;;7387035;19;20190;-72
2023/03/13 11:28:56;;;;;;;3.13;1.10;;;17.60;99.90;;;;;;7384913;19;20154;-72
2023/03/13 11:31:27;;;;;;;3.90;1.30;;;17.60;99.90;;;;;;7386038;19;20142;-72
2023/03/13 11:34:10;;;;;;;2.83;1.10;;;17.70;99.90;;;;;;7385884;19;20154;-72
2023/03/13 11:36:52;;;;;;;3.47;1.35;;;17.70;99.90;;;;;;7388521;19;20135;-73
2023/03/13 11:39:43;;;;;;;6.93;4.35;;;17.70;99.90;;;;;;7385125;19;20157;-72
2023/03/13 11:42:35;;;;;;;3.80;2.42;;;17.70;99.90;;;;;;7392358;19;20164;-72
2023/03/13 11:45:34;;;;;;;1.02;0.93;;;17.80;99.90;;;;;;7392946;19;20139;-73
2023/03/13 11:48:18;;;;;;;1.98;1.20;;;17.90;99.90;;;;;;7391291;19;20159;-70
2023/03/13 11:50:56;;;;;;;1.00;0.85;;;18.20;99.90;;;;;;7387934;19;20157;-72
2023/03/13 11:53:53;;;;;;;2.67;2.10;;;18.40;99.90;;;;;;7394569;19;20144;-72
2023/03/13 11:56:37;;;;;;;2.70;1.63;;;18.60;99.90;;;;;;7401953;19;20479;-72
2023/03/13 11:59:25;;;;;;;2.28;1.27;;;18.60;99.90;;;;;;7394479;19;20142;-72
2023/03/13 12:01:59;;;;;;;4.78;1.00;;;18.80;99.90;;;;;;7390569;19;20165;-72
2023/03/13 12:04:42;;;;;;;2.10;1.10;;;18.80;99.90;;;;;;7392511;19;20206;-72
2023/03/13 12:07:17;;;;;;;2.10;1.20;;;18.90;99.90;;;;;;7390427;19;20206;-72
2023/03/13 12:09:56;;;;;;;1.35;0.95;;;18.90;99.90;;;;;;7391411;19;20149;-73
2023/03/13 12:12:58;;;;;;;1.52;1.02;;;18.90;99.90;;;;;;7391073;19;20558;-73
2023/03/13 12:15:55;;;;;;;1.35;0.90;;;18.80;99.90;;;;;;7388471;19;20163;-74
2023/03/13 12:18:33;;;;;;;2.10;0.90;;;18.80;99.90;;;;;;7390597;19;20134;-77
2023/03/13 12:21:24;;;;;;;1.38;0.75;;;18.90;99.90;;;;;;7386271;19;20571;-75
2023/03/13 12:23:55;;;;;;;1.25;0.80;;;18.90;99.90;;;;;;7391284;19;20591;-76
2023/03/13 12:26:32;;;;;;;2.25;1.00;;;18.80;99.90;;;;;;7392249;19;20521;-76
2023/03/13 12:29:09;;;;;;;1.25;0.90;;;18.90;99.90;;;;;;7388362;19;20877;-75
2023/03/13 12:31:44;;;;;;;1.08;0.80;;;19.10;99.90;;;;;;7389580;19;20137;-76
2023/03/13 12:34:26;;;;;;;2.60;0.82;;;19.00;99.90;;;;;;7387319;19;20402;-74
2023/03/13 12:37:07;;;;;;;1.55;0.70;;;19.20;99.90;;;;;;7394011;19;20206;-76
2023/03/13 12:39:52;;;;;;;1.60;0.93;;;19.30;99.90;;;;;;7391864;19;20146;-74
2023/03/13 12:42:46;;;;;;;1.85;1.00;;;19.40;99.90;;;;;;7389450;19;20165;-74
2023/03/13 12:45:23;;;;;;;1.90;0.80;;;19.50;99.90;;;;;;7392200;19;20130;-75
2023/03/13 12:48:34;;;;;;;0.98;0.70;;;19.50;99.90;;;;;;7388940;19;20150;-75
2023/03/13 12:51:29;;;;;;;1.10;0.70;;;19.50;99.90;;;;;;7388573;19;20174;-75
2023/03/13 12:54:23;;;;;;;1.52;0.75;;;19.50;99.90;;;;;;7389069;19;20179;-75
2023/03/13 12:57:16;;;;;;;2.55;0.90;;;19.60;99.90;;;;;;7389671;19;20157;-75
2023/03/13 13:00:09;;;;;;;0.90;0.60;;;19.70;99.90;;;;;;7390073;19;20134;-74
2023/03/13 13:02:35;;;;;;;3.38;1.10;;;19.60;99.90;;;;;;7387325;19;20394;-75
2023/03/13 13:05:01;;;;;;;1.67;0.57;;;19.70;99.90;;;;;;7385822;19;20378;-75
2023/03/13 13:07:36;;;;;;;0.70;0.65;;;19.60;99.90;;;;;;7390064;19;20138;-74